sensor_id;sensor_type;location;lat;lon;timestamp;pressure;altitude;pressure_sealevel;temperature;humidity
22241;BME280;11289;52.524;13.694;2023-04-28T00:00:50;101323.69;;;4.79;63.34
22241;BME280;11289;52.524;13.694;2023-04-28T00:03:19;101333.28;;;4.82;63.45
22241;BME280;11289;52.524;13.694;2023-04-28T00:05:45;101311.28;;;4.61;63.83
22241;BME280;11289;52.524;13.694;2023-04-28T00:08:12;101328.06;;;4.75;63.69
22241;BME280;11289;52.524;13.694;2023-04-28T00:10:38;101333.28;;;4.71;63.71
22241;BME280;11289;52.524;13.694;2023-04-28T00:13:04;101342.09;;;4.68;63.70
22241;BME280;11289;52.524;13.694;2023-04-28T00:15:30;101291.16;;;4.45;63.84
22241;BME280;11289;52.524;13.694;2023-04-28T00:17:56;101322.28;;;4.56;63.81
22241;BME280;11289;52.524;13.694;2023-04-28T00:20:22;101305.75;;;4.41;63.91
22241;BME280;11289;52.524;13.694;2023-04-28T00:22:48;101333.81;;;4.53;63.82
22241;BME280;11289;52.524;13.694;2023-04-28T00:25:15;101308.47;;;4.35;63.53
22241;BME280;11289;52.524;13.694;2023-04-28T00:27:41;101291.97;;;4.25;63.93
22241;BME280;11289;52.524;13.694;2023-04-28T00:30:07;101280.66;;;4.16;64.18
22241;BME280;11289;52.524;13.694;2023-04-28T00:32:34;101323.88;;;4.36;64.39
22241;BME280;11289;52.524;13.694;2023-04-28T00:35:00;101304.06;;;4.24;64.30
22241;BME280;11289;52.524;13.694;2023-04-28T00:37:26;101299.66;;;4.28;64.01
22241;BME280;11289;52.524;13.694;2023-04-28T00:39:55;101301.84;;;4.21;64.15
22241;BME280;11289;52.524;13.694;2023-04-28T00:42:21;101312.03;;;4.21;64.39
22241;BME280;11289;52.524;13.694;2023-04-28T00:44:47;101317.25;;;4.22;63.84
22241;BME280;11289;52.524;13.694;2023-04-28T00:47:16;101317.53;;;4.26;64.35
22241;BME280;11289;52.524;13.694;2023-04-28T00:49:42;101331.56;;;4.24;64.19
22241;BME280;11289;52.524;13.694;2023-04-28T00:52:09;101306.22;;;4.12;64.29
22241;BME280;11289;52.524;13.694;2023-04-28T00:54:35;101308.66;;;4.03;64.53
22241;BME280;11289;52.524;13.694;2023-04-28T00:57:02;101295.75;;;3.98;64.45
22241;BME280;11289;52.524;13.694;2023-04-28T00:59:29;101308.94;;;4.01;64.92
22241;BME280;11289;52.524;13.694;2023-04-28T01:01:55;101308.94;;;4.01;64.66
22241;BME280;11289;52.524;13.694;2023-04-28T01:04:22;101305.66;;;3.99;64.95
22241;BME280;11289;52.524;13.694;2023-04-28T01:06:50;101304.22;;;3.92;64.76
22241;BME280;11289;52.524;13.694;2023-04-28T01:09:17;101305.06;;;3.97;64.98
22241;BME280;11289;52.524;13.694;2023-04-28T01:11:43;101284.16;;;3.81;64.66
22241;BME280;11289;52.524;13.694;2023-04-28T01:14:09;101290.19;;;3.83;65.00
22241;BME280;11289;52.524;13.694;2023-04-28T01:16:35;101270.91;;;3.73;65.04
22241;BME280;11289;52.524;13.694;2023-04-28T01:19:06;101289.66;;;3.81;64.90
22241;BME280;11289;52.524;13.694;2023-04-28T01:21:33;101315.53;;;3.95;65.32
22241;BME280;11289;52.524;13.694;2023-04-28T01:24:00;101279.44;;;3.71;65.50
22241;BME280;11289;52.524;13.694;2023-04-28T01:26:26;101313.00;;;3.89;65.18
22241;BME280;11289;52.524;13.694;2023-04-28T01:28:52;101288.25;;;3.73;65.47
22241;BME280;11289;52.524;13.694;2023-04-28T01:31:18;101279.13;;;3.62;65.50
22241;BME280;11289;52.524;13.694;2023-04-28T01:33:44;101280.78;;;3.63;65.31
22241;BME280;11289;52.524;13.694;2023-04-28T01:36:10;101292.91;;;3.73;65.61
22241;BME280;11289;52.524;13.694;2023-04-28T01:38:37;101268.13;;;3.62;65.51
22241;BME280;11289;52.524;13.694;2023-04-28T01:41:02;101275.81;;;3.60;65.54
22241;BME280;11289;52.524;13.694;2023-04-28T01:43:28;101280.25;;;3.66;65.81
22241;BME280;11289;52.524;13.694;2023-04-28T01:45:55;101268.69;;;3.59;65.50
22241;BME280;11289;52.524;13.694;2023-04-28T01:48:21;101243.88;;;3.44;65.67
22241;BME280;11289;52.524;13.694;2023-04-28T01:50:46;101275.78;;;3.55;66.03
22241;BME280;11289;52.524;13.694;2023-04-28T01:53:30;101271.97;;;3.56;65.83
22241;BME280;11289;52.524;13.694;2023-04-28T01:55:56;101293.69;;;3.68;65.95
22241;BME280;11289;52.524;13.694;2023-04-28T01:58:23;101273.03;;;3.55;65.87
22241;BME280;11289;52.524;13.694;2023-04-28T02:00:49;101264.72;;;3.40;66.07
22241;BME280;11289;52.524;13.694;2023-04-28T02:03:15;101258.69;;;3.38;65.95
22241;BME280;11289;52.524;13.694;2023-04-28T02:05:41;101255.94;;;3.38;65.66
22241;BME280;11289;52.524;13.694;2023-04-28T02:08:07;101265.28;;;3.42;65.83
22241;BME280;11289;52.524;13.694;2023-04-28T02:10:33;101263.63;;;3.41;65.87
22241;BME280;11289;52.524;13.694;2023-04-28T02:12:59;101263.38;;;3.42;65.72
22241;BME280;11289;52.524;13.694;2023-04-28T02:15:25;101246.56;;;3.28;65.92
22241;BME280;11289;52.524;13.694;2023-04-28T02:17:51;101273.00;;;3.45;65.87
22241;BME280;11289;52.524;13.694;2023-04-28T02:20:18;101270.75;;;3.37;66.03
22241;BME280;11289;52.524;13.694;2023-04-28T02:22:44;101275.19;;;3.43;65.68
22241;BME280;11289;52.524;13.694;2023-04-28T02:25:10;101275.16;;;3.38;65.94
22241;BME280;11289;52.524;13.694;2023-04-28T02:27:36;101280.16;;;3.46;65.96
22241;BME280;11289;52.524;13.694;2023-04-28T02:30:03;101276.28;;;3.47;65.85
22241;BME280;11289;52.524;13.694;2023-04-28T02:32:32;101274.06;;;3.39;66.01
22241;BME280;11289;52.524;13.694;2023-04-28T02:34:58;101273.75;;;3.35;65.78
22241;BME280;11289;52.524;13.694;2023-04-28T02:37:24;101267.44;;;3.35;65.51
22241;BME280;11289;52.524;13.694;2023-04-28T02:39:50;101257.81;;;3.32;65.69
22241;BME280;11289;52.524;13.694;2023-04-28T02:42:17;101267.44;;;3.35;65.89
22241;BME280;11289;52.524;13.694;2023-04-28T02:44:52;101277.91;;;3.38;65.98
22241;BME280;11289;52.524;13.694;2023-04-28T02:47:18;101258.31;;;3.24;65.88
22241;BME280;11289;52.524;13.694;2023-04-28T02:49:48;101229.47;;;3.11;66.29
22241;BME280;11289;52.524;13.694;2023-04-28T02:52:19;101222.53;;;3.03;66.33
22241;BME280;11289;52.524;13.694;2023-04-28T02:54:47;101218.97;;;3.03;66.11
22241;BME280;11289;52.524;13.694;2023-04-28T02:57:25;101236.28;;;3.08;65.90
22241;BME280;11289;52.524;13.694;2023-04-28T02:59:58;101240.97;;;3.13;65.99
22241;BME280;11289;52.524;13.694;2023-04-28T03:02:28;101248.94;;;3.14;66.32
22241;BME280;11289;52.524;13.694;2023-04-28T03:08:13;101244.00;;;3.11;66.24
22241;BME280;11289;52.524;13.694;2023-04-28T03:10:46;101240.97;;;3.13;66.07
22241;BME280;11289;52.524;13.694;2023-04-28T03:13:16;101233.25;;;3.05;66.43
22241;BME280;11289;52.524;13.694;2023-04-28T03:16:17;101252.56;;;3.20;66.19
22241;BME280;11289;52.524;13.694;2023-04-28T03:18:43;101230.75;;;3.03;66.31
22241;BME280;11289;52.524;13.694;2023-04-28T03:21:09;101240.97;;;3.13;66.48
22241;BME280;11289;52.524;13.694;2023-04-28T03:23:35;101239.63;;;3.16;66.50
22241;BME280;11289;52.524;13.694;2023-04-28T03:26:07;101236.28;;;3.08;66.60
22241;BME280;11289;52.524;13.694;2023-04-28T03:28:34;101221.19;;;3.06;66.86
22241;BME280;11289;52.524;13.694;2023-04-28T03:31:00;101217.31;;;3.02;66.96
22241;BME280;11289;52.524;13.694;2023-04-28T03:33:27;101241.84;;;3.24;67.10
22241;BME280;11289;52.524;13.694;2023-04-28T03:35:53;101238.25;;;3.13;67.55
22241;BME280;11289;52.524;13.694;2023-04-28T03:38:19;101239.66;;;3.21;67.74
22241;BME280;11289;52.524;13.694;2023-04-28T03:40:45;101241.31;;;3.22;67.27
22241;BME280;11289;52.524;13.694;2023-04-28T03:43:12;101233.63;;;3.24;67.32
22241;BME280;11289;52.524;13.694;2023-04-28T03:45:39;101237.75;;;3.26;67.31
22241;BME280;11289;52.524;13.694;2023-04-28T03:48:06;101234.16;;;3.21;67.34
22241;BME280;11289;52.524;13.694;2023-04-28T03:50:32;101233.94;;;3.27;67.25
22241;BME280;11289;52.524;13.694;2023-04-28T03:52:58;101228.44;;;3.27;67.45
22241;BME280;11289;52.524;13.694;2023-04-28T03:55:24;101225.38;;;3.24;67.28
22241;BME280;11289;52.524;13.694;2023-04-28T03:57:51;101222.38;;;3.20;67.47
22241;BME280;11289;52.524;13.694;2023-04-28T04:00:17;101234.47;;;3.24;68.10
22241;BME280;11289;52.524;13.694;2023-04-28T04:02:43;101222.91;;;3.22;67.97
22241;BME280;11289;52.524;13.694;2023-04-28T04:05:09;101224.31;;;3.25;67.48
22241;BME280;11289;52.524;13.694;2023-04-28T04:07:35;101218.53;;;3.26;67.69
22241;BME280;11289;52.524;13.694;2023-04-28T04:10:01;101226.25;;;3.29;67.58
22241;BME280;11289;52.524;13.694;2023-04-28T04:12:27;101223.53;;;3.35;67.40
22241;BME280;11289;52.524;13.694;2023-04-28T04:14:53;101211.75;;;3.34;67.40
22241;BME280;11289;52.524;13.694;2023-04-28T04:17:19;101215.03;;;3.36;67.23
22241;BME280;11289;52.524;13.694;2023-04-28T04:19:45;101213.69;;;3.39;66.84
22241;BME280;11289;52.524;13.694;2023-04-28T04:22:11;101219.97;;;3.39;67.12
22241;BME280;11289;52.524;13.694;2023-04-28T04:24:37;101210.94;;;3.39;67.14
22241;BME280;11289;52.524;13.694;2023-04-28T04:27:03;101209.56;;;3.41;67.28
22241;BME280;11289;52.524;13.694;2023-04-28T04:29:29;101204.63;;;3.43;67.38
22241;BME280;11289;52.524;13.694;2023-04-28T04:31:55;101211.50;;;3.46;67.51
22241;BME280;11289;52.524;13.694;2023-04-28T04:34:21;101209.88;;;3.50;67.12
22241;BME280;11289;52.524;13.694;2023-04-28T04:36:47;101204.66;;;3.54;67.36
22241;BME280;11289;52.524;13.694;2023-04-28T04:39:13;101206.59;;;3.58;67.37
22241;BME280;11289;52.524;13.694;2023-04-28T04:41:39;101217.06;;;3.66;67.25
22241;BME280;11289;52.524;13.694;2023-04-28T04:44:06;101207.75;;;3.68;67.05
22241;BME280;11289;52.524;13.694;2023-04-28T04:46:32;101201.72;;;3.71;66.84
22241;BME280;11289;52.524;13.694;2023-04-28T04:48:58;101201.72;;;3.76;66.72
22241;BME280;11289;52.524;13.694;2023-04-28T04:51:24;101195.66;;;3.79;65.90
22241;BME280;11289;52.524;13.694;2023-04-28T04:53:50;101190.16;;;3.79;66.04
22241;BME280;11289;52.524;13.694;2023-04-28T04:56:16;101195.16;;;3.87;66.31
22241;BME280;11289;52.524;13.694;2023-04-28T04:58:42;101180.56;;;3.81;66.38
22241;BME280;11289;52.524;13.694;2023-04-28T05:01:11;101194.06;;;3.88;66.30
22241;BME280;11289;52.524;13.694;2023-04-28T05:03:37;101184.16;;;3.87;66.54
22241;BME280;11289;52.524;13.694;2023-04-28T05:06:03;101181.44;;;3.92;66.57
22241;BME280;11289;52.524;13.694;2023-04-28T05:08:29;101185.00;;;3.93;66.12
22241;BME280;11289;52.524;13.694;2023-04-28T05:10:55;101181.44;;;3.97;65.77
22241;BME280;11289;52.524;13.694;2023-04-28T05:13:21;101186.94;;;4.03;65.75
22241;BME280;11289;52.524;13.694;2023-04-28T05:15:47;101180.91;;;4.06;65.67
22241;BME280;11289;52.524;13.694;2023-04-28T05:18:13;101176.50;;;4.10;65.85
22241;BME280;11289;52.524;13.694;2023-04-28T05:20:39;101169.91;;;4.16;66.48
22241;BME280;11289;52.524;13.694;2023-04-28T05:23:05;101176.50;;;4.20;65.77
22241;BME280;11289;52.524;13.694;2023-04-28T05:25:31;101181.44;;;4.28;65.74
22241;BME280;11289;52.524;13.694;2023-04-28T05:27:57;101177.59;;;4.29;65.55
22241;BME280;11289;52.524;13.694;2023-04-28T05:30:23;101178.44;;;4.40;65.73
22241;BME280;11289;52.524;13.694;2023-04-28T05:32:49;101176.78;;;4.44;65.82
22241;BME280;11289;52.524;13.694;2023-04-28T05:35:15;101181.44;;;4.54;65.52
22241;BME280;11289;52.524;13.694;2023-04-28T05:37:42;101171.00;;;4.61;65.44
22241;BME280;11289;52.524;13.694;2023-04-28T05:40:09;101170.97;;;4.71;65.97
22241;BME280;11289;52.524;13.694;2023-04-28T05:42:35;101167.09;;;4.78;64.75
22241;BME280;11289;52.524;13.694;2023-04-28T05:45:01;101169.28;;;4.86;64.97
22241;BME280;11289;52.524;13.694;2023-04-28T05:47:27;101171.44;;;4.99;65.25
22241;BME280;11289;52.524;13.694;2023-04-28T05:49:54;101156.59;;;5.05;64.57
22241;BME280;11289;52.524;13.694;2023-04-28T05:52:21;101161.47;;;5.24;64.22
22241;BME280;11289;52.524;13.694;2023-04-28T05:54:46;101159.19;;;5.41;63.88
22241;BME280;11289;52.524;13.694;2023-04-28T05:57:13;101159.06;;;5.67;63.40
22241;BME280;11289;52.524;13.694;2023-04-28T05:59:39;101161.09;;;5.91;62.58
22241;BME280;11289;52.524;13.694;2023-04-28T06:02:05;101153.53;;;6.17;61.69
22241;BME280;11289;52.524;13.694;2023-04-28T06:04:31;101155.47;;;6.46;61.26
22241;BME280;11289;52.524;13.694;2023-04-28T06:06:57;101160.44;;;6.73;59.94
22241;BME280;11289;52.524;13.694;2023-04-28T06:09:23;101155.19;;;7.01;59.30
22241;BME280;11289;52.524;13.694;2023-04-28T06:11:49;101147.88;;;7.35;58.37
22241;BME280;11289;52.524;13.694;2023-04-28T06:14:15;101151.66;;;7.63;57.83
22241;BME280;11289;52.524;13.694;2023-04-28T06:16:41;101147.91;;;7.92;56.78
22241;BME280;11289;52.524;13.694;2023-04-28T06:19:07;101143.72;;;8.13;54.65
22241;BME280;11289;52.524;13.694;2023-04-28T06:21:34;101140.72;;;8.43;55.08
22241;BME280;11289;52.524;13.694;2023-04-28T06:24:00;101138.97;;;8.80;55.52
22241;BME280;11289;52.524;13.694;2023-04-28T06:26:27;101130.56;;;8.99;53.38
22241;BME280;11289;52.524;13.694;2023-04-28T06:28:53;101128.41;;;9.23;52.45
22241;BME280;11289;52.524;13.694;2023-04-28T06:31:19;101125.94;;;9.50;52.26
22241;BME280;11289;52.524;13.694;2023-04-28T06:33:45;101126.19;;;9.76;51.01
22241;BME280;11289;52.524;13.694;2023-04-28T06:36:11;101119.22;;;9.87;51.40
22241;BME280;11289;52.524;13.694;2023-04-28T06:38:43;101126.75;;;10.09;50.18
22241;BME280;11289;52.524;13.694;2023-04-28T06:41:09;101126.38;;;10.25;48.85
22241;BME280;11289;52.524;13.694;2023-04-28T06:43:36;101110.63;;;10.34;49.39
22241;BME280;11289;52.524;13.694;2023-04-28T06:46:03;101114.38;;;10.61;48.46
22241;BME280;11289;52.524;13.694;2023-04-28T06:48:29;101122.28;;;10.76;48.31
22241;BME280;11289;52.524;13.694;2023-04-28T06:50:55;101109.31;;;11.03;48.36
22241;BME280;11289;52.524;13.694;2023-04-28T06:53:21;101111.47;;;11.15;47.41
22241;BME280;11289;52.524;13.694;2023-04-28T06:55:47;101100.38;;;11.32;47.58
22241;BME280;11289;52.524;13.694;2023-04-28T06:58:13;101094.06;;;11.58;47.45
22241;BME280;11289;52.524;13.694;2023-04-28T07:00:38;101088.16;;;11.86;45.50
22241;BME280;11289;52.524;13.694;2023-04-28T07:03:04;101093.41;;;12.05;45.42
22241;BME280;11289;52.524;13.694;2023-04-28T07:05:31;101092.75;;;12.17;45.02
22241;BME280;11289;52.524;13.694;2023-04-28T07:07:58;101089.28;;;12.38;44.34
22241;BME280;11289;52.524;13.694;2023-04-28T07:10:24;101102.81;;;12.57;43.34
22241;BME280;11289;52.524;13.694;2023-04-28T07:12:50;101091.94;;;12.73;42.00
22241;BME280;11289;52.524;13.694;2023-04-28T07:15:19;101097.69;;;12.67;42.65
22241;BME280;11289;52.524;13.694;2023-04-28T07:17:45;101090.88;;;12.47;41.34
22241;BME280;11289;52.524;13.694;2023-04-28T07:20:11;101087.75;;;12.49;41.89
22241;BME280;11289;52.524;13.694;2023-04-28T07:22:37;101081.03;;;12.50;41.10
22241;BME280;11289;52.524;13.694;2023-04-28T07:25:04;101082.81;;;12.54;41.99
22241;BME280;11289;52.524;13.694;2023-04-28T07:27:30;101085.66;;;12.84;42.33
22241;BME280;11289;52.524;13.694;2023-04-28T07:29:56;101078.53;;;13.04;41.03
22241;BME280;11289;52.524;13.694;2023-04-28T07:32:22;101070.63;;;13.06;40.90
22241;BME280;11289;52.524;13.694;2023-04-28T07:34:49;101074.31;;;13.19;39.03
22241;BME280;11289;52.524;13.694;2023-04-28T07:37:15;101073.84;;;13.17;39.55
22241;BME280;11289;52.524;13.694;2023-04-28T07:39:41;101061.78;;;13.34;39.90
22241;BME280;11289;52.524;13.694;2023-04-28T07:42:07;101067.31;;;13.64;39.55
22241;BME280;11289;52.524;13.694;2023-04-28T07:44:34;101069.25;;;13.85;39.13
22241;BME280;11289;52.524;13.694;2023-04-28T07:47:00;101068.72;;;13.91;38.14
22241;BME280;11289;52.524;13.694;2023-04-28T07:49:30;101051.91;;;14.00;38.89
22241;BME280;11289;52.524;13.694;2023-04-28T07:51:56;101050.06;;;14.17;39.04
22241;BME280;11289;52.524;13.694;2023-04-28T07:54:22;101047.88;;;14.22;38.92
22241;BME280;11289;52.524;13.694;2023-04-28T07:56:48;101053.38;;;14.31;38.63
22241;BME280;11289;52.524;13.694;2023-04-28T07:59:14;101041.50;;;14.34;37.76
22241;BME280;11289;52.524;13.694;2023-04-28T08:01:40;101037.91;;;14.46;38.21
22241;BME280;11289;52.524;13.694;2023-04-28T08:04:07;101052.53;;;14.76;37.53
22241;BME280;11289;52.524;13.694;2023-04-28T08:06:33;101034.56;;;14.90;35.93
22241;BME280;11289;52.524;13.694;2023-04-28T08:09:00;101040.84;;;15.11;36.62
22241;BME280;11289;52.524;13.694;2023-04-28T08:11:27;101033.03;;;15.29;36.10
22241;BME280;11289;52.524;13.694;2023-04-28T08:13:53;101031.59;;;15.36;36.22
22241;BME280;11289;52.524;13.694;2023-04-28T08:16:19;101026.38;;;15.22;36.54
22241;BME280;11289;52.524;13.694;2023-04-28T08:18:45;101019.63;;;15.35;37.00
22241;BME280;11289;52.524;13.694;2023-04-28T08:21:11;101021.25;;;15.64;36.89
22241;BME280;11289;52.524;13.694;2023-04-28T08:23:37;101021.56;;;15.88;35.85
22241;BME280;11289;52.524;13.694;2023-04-28T08:26:03;101008.75;;;15.74;35.39
22241;BME280;11289;52.524;13.694;2023-04-28T08:28:29;101008.84;;;15.78;34.81
22241;BME280;11289;52.524;13.694;2023-04-28T08:30:55;101026.00;;;16.05;35.74
22241;BME280;11289;52.524;13.694;2023-04-28T08:33:22;101010.09;;;16.09;35.31
22241;BME280;11289;52.524;13.694;2023-04-28T08:35:49;101016.91;;;16.08;35.18
22241;BME280;11289;52.524;13.694;2023-04-28T08:38:15;101016.19;;;16.27;35.57
22241;BME280;11289;52.524;13.694;2023-04-28T08:40:42;101012.75;;;16.17;35.10
22241;BME280;11289;52.524;13.694;2023-04-28T08:43:09;101010.31;;;16.32;34.29
22241;BME280;11289;52.524;13.694;2023-04-28T08:45:40;101002.81;;;16.52;35.25
22241;BME280;11289;52.524;13.694;2023-04-28T08:48:40;101011.84;;;16.61;34.82
22241;BME280;11289;52.524;13.694;2023-04-28T08:51:07;100996.03;;;16.69;34.40
22241;BME280;11289;52.524;13.694;2023-04-28T08:53:38;100998.72;;;16.81;33.72
22241;BME280;11289;52.524;13.694;2023-04-28T08:56:05;100995.84;;;16.94;34.37
22241;BME280;11289;52.524;13.694;2023-04-28T08:58:34;100993.91;;;17.14;34.28
22241;BME280;11289;52.524;13.694;2023-04-28T09:01:00;100992.06;;;17.41;33.82
22241;BME280;11289;52.524;13.694;2023-04-28T09:03:30;100985.50;;;17.53;33.17
22241;BME280;11289;52.524;13.694;2023-04-28T09:06:00;100979.34;;;17.28;32.16
22241;BME280;11289;52.524;13.694;2023-04-28T09:08:27;100985.41;;;17.30;33.17
22241;BME280;11289;52.524;13.694;2023-04-28T09:11:07;100977.88;;;17.34;34.09
22241;BME280;11289;52.524;13.694;2023-04-28T09:13:34;100966.81;;;17.21;33.45
22241;BME280;11289;52.524;13.694;2023-04-28T09:16:01;100961.50;;;17.36;33.30
22241;BME280;11289;52.524;13.694;2023-04-28T09:18:29;100961.13;;;17.37;33.58
22241;BME280;11289;52.524;13.694;2023-04-28T09:21:08;100952.31;;;17.58;33.59
22241;BME280;11289;52.524;13.694;2023-04-28T09:23:46;100966.41;;;17.82;32.96
22241;BME280;11289;52.524;13.694;2023-04-28T09:26:12;100957.47;;;17.96;32.07
22241;BME280;11289;52.524;13.694;2023-04-28T09:28:38;100949.97;;;18.03;32.20
22241;BME280;11289;52.524;13.694;2023-04-28T09:31:05;100955.84;;;18.18;32.30
22241;BME280;11289;52.524;13.694;2023-04-28T09:33:31;100949.47;;;18.21;32.12
22241;BME280;11289;52.524;13.694;2023-04-28T09:35:57;100946.41;;;18.30;32.01
22241;BME280;11289;52.524;13.694;2023-04-28T09:38:23;100940.72;;;18.49;31.88
22241;BME280;11289;52.524;13.694;2023-04-28T09:40:59;100942.41;;;18.31;31.92
22241;BME280;11289;52.524;13.694;2023-04-28T09:43:35;100943.72;;;18.37;31.92
22241;BME280;11289;52.524;13.694;2023-04-28T09:46:02;100935.97;;;18.53;31.81
22241;BME280;11289;52.524;13.694;2023-04-28T09:48:30;100932.81;;;18.58;31.31
22241;BME280;11289;52.524;13.694;2023-04-28T09:50:57;100933.94;;;18.27;31.92
22241;BME280;11289;52.524;13.694;2023-04-28T09:53:25;100924.75;;;18.07;32.27
22241;BME280;11289;52.524;13.694;2023-04-28T09:55:53;100924.56;;;17.96;32.13
22241;BME280;11289;52.524;13.694;2023-04-28T09:58:20;100921.63;;;18.12;31.72
22241;BME280;11289;52.524;13.694;2023-04-28T10:00:51;100923.47;;;18.01;31.86
22241;BME280;11289;52.524;13.694;2023-04-28T10:03:19;100917.19;;;17.88;32.62
22241;BME280;11289;52.524;13.694;2023-04-28T10:05:46;100922.75;;;18.07;33.13
22241;BME280;11289;52.524;13.694;2023-04-28T10:08:13;100913.16;;;18.08;32.16
22241;BME280;11289;52.524;13.694;2023-04-28T10:10:39;100899.41;;;18.03;32.63
22241;BME280;11289;52.524;13.694;2023-04-28T10:13:06;100911.97;;;18.09;33.50
22241;BME280;11289;52.524;13.694;2023-04-28T10:15:33;100905.34;;;17.98;32.00
22241;BME280;11289;52.524;13.694;2023-04-28T10:18:01;100900.84;;;18.17;31.96
22241;BME280;11289;52.524;13.694;2023-04-28T10:20:28;100890.16;;;18.26;32.40
22241;BME280;11289;52.524;13.694;2023-04-28T10:25:54;100896.69;;;18.87;32.35
22241;BME280;11289;52.524;13.694;2023-04-28T10:28:22;100883.94;;;19.27;31.57
22241;BME280;11289;52.524;13.694;2023-04-28T10:31:17;100885.91;;;19.23;30.88
22241;BME280;11289;52.524;13.694;2023-04-28T10:33:43;100874.50;;;19.12;31.21
22241;BME280;11289;52.524;13.694;2023-04-28T10:36:09;100884.25;;;19.19;31.67
22241;BME280;11289;52.524;13.694;2023-04-28T10:39:08;100879.66;;;19.41;31.33
22241;BME280;11289;52.524;13.694;2023-04-28T10:41:34;100869.97;;;19.35;31.18
22241;BME280;11289;52.524;13.694;2023-04-28T10:44:00;100861.22;;;19.43;31.77
22241;BME280;11289;52.524;13.694;2023-04-28T10:47:06;100866.94;;;19.54;31.13
22241;BME280;11289;52.524;13.694;2023-04-28T10:55:28;100863.19;;;19.80;30.32
22241;BME280;11289;52.524;13.694;2023-04-28T11:00:51;100846.63;;;19.34;31.34
22241;BME280;11289;52.524;13.694;2023-04-28T11:06:39;100841.75;;;19.69;31.25
22241;BME280;11289;52.524;13.694;2023-04-28T11:11:38;100832.28;;;19.46;30.14
22241;BME280;11289;52.524;13.694;2023-04-28T11:16:57;100828.69;;;19.49;30.80
22241;BME280;11289;52.524;13.694;2023-04-28T11:21:59;100833.75;;;19.74;30.92
22241;BME280;11289;52.524;13.694;2023-04-28T11:24:27;100836.50;;;19.71;30.48
22241;BME280;11289;52.524;13.694;2023-04-28T11:26:55;100828.28;;;19.51;31.03
22241;BME280;11289;52.524;13.694;2023-04-28T11:31:56;100818.66;;;19.52;31.29
22241;BME280;11289;52.524;13.694;2023-04-28T11:34:23;100825.63;;;19.65;31.49
22241;BME280;11289;52.524;13.694;2023-04-28T11:36:49;100824.69;;;19.54;31.25
22241;BME280;11289;52.524;13.694;2023-04-28T11:39:15;100820.63;;;19.48;30.92
22241;BME280;11289;52.524;13.694;2023-04-28T11:41:43;100816.56;;;19.45;31.02
22241;BME280;11289;52.524;13.694;2023-04-28T11:44:13;100808.22;;;19.15;31.36
22241;BME280;11289;52.524;13.694;2023-04-28T11:46:47;100809.47;;;19.18;31.66
22241;BME280;11289;52.524;13.694;2023-04-28T11:49:23;100809.72;;;19.05;32.32
22241;BME280;11289;52.524;13.694;2023-04-28T11:51:52;100806.88;;;19.02;32.39
22241;BME280;11289;52.524;13.694;2023-04-28T11:54:21;100812.91;;;19.04;31.56
22241;BME280;11289;52.524;13.694;2023-04-28T11:56:47;100806.69;;;18.87;31.86
22241;BME280;11289;52.524;13.694;2023-04-28T11:59:13;100805.25;;;19.01;32.09
22241;BME280;11289;52.524;13.694;2023-04-28T12:01:54;100802.09;;;19.06;32.72
22241;BME280;11289;52.524;13.694;2023-04-28T12:07:20;100797.97;;;18.96;32.51
22241;BME280;11289;52.524;13.694;2023-04-28T12:10:08;100796.38;;;18.68;32.98
22241;BME280;11289;52.524;13.694;2023-04-28T12:12:35;100784.44;;;18.75;32.99
22241;BME280;11289;52.524;13.694;2023-04-28T12:15:05;100791.53;;;18.65;33.23
22241;BME280;11289;52.524;13.694;2023-04-28T12:17:34;100784.63;;;18.59;33.45
22241;BME280;11289;52.524;13.694;2023-04-28T12:20:03;100783.88;;;18.62;33.75
22241;BME280;11289;52.524;13.694;2023-04-28T12:22:30;100785.44;;;18.59;33.45
22241;BME280;11289;52.524;13.694;2023-04-28T12:25:09;100784.47;;;18.48;34.09
22241;BME280;11289;52.524;13.694;2023-04-28T12:27:37;100775.63;;;18.46;33.71
22241;BME280;11289;52.524;13.694;2023-04-28T12:32:46;100779.91;;;18.67;33.63
22241;BME280;11289;52.524;13.694;2023-04-28T12:35:13;100774.84;;;18.79;33.68
22241;BME280;11289;52.524;13.694;2023-04-28T12:37:40;100769.06;;;18.69;33.72
22241;BME280;11289;52.524;13.694;2023-04-28T12:40:07;100769.44;;;18.64;34.06
22241;BME280;11289;52.524;13.694;2023-04-28T12:42:34;100771.59;;;18.77;33.51
22241;BME280;11289;52.524;13.694;2023-04-28T12:45:00;100763.31;;;18.88;33.80
22241;BME280;11289;52.524;13.694;2023-04-28T12:47:26;100761.84;;;18.98;33.87
22241;BME280;11289;52.524;13.694;2023-04-28T12:49:52;100758.56;;;18.92;34.62
22241;BME280;11289;52.524;13.694;2023-04-28T12:52:19;100756.63;;;19.04;33.08
22241;BME280;11289;52.524;13.694;2023-04-28T12:54:46;100752.66;;;19.05;33.15
22241;BME280;11289;52.524;13.694;2023-04-28T12:57:15;100757.91;;;18.76;33.91
22241;BME280;11289;52.524;13.694;2023-04-28T12:59:42;100743.06;;;18.75;33.73
22241;BME280;11289;52.524;13.694;2023-04-28T13:02:08;100753.25;;;18.87;33.60
22241;BME280;11289;52.524;13.694;2023-04-28T13:04:34;100741.47;;;18.78;33.41
22241;BME280;11289;52.524;13.694;2023-04-28T13:07:00;100747.88;;;18.75;33.76
22241;BME280;11289;52.524;13.694;2023-04-28T13:09:27;100741.56;;;18.85;33.62
22241;BME280;11289;52.524;13.694;2023-04-28T13:11:53;100715.56;;;18.61;33.16
22241;BME280;11289;52.524;13.694;2023-04-28T13:14:19;100725.28;;;18.68;34.48
22241;BME280;11289;52.524;13.694;2023-04-28T13:16:45;100734.38;;;18.88;33.90
22241;BME280;11289;52.524;13.694;2023-04-28T13:19:12;100728.75;;;18.88;33.89
22241;BME280;11289;52.524;13.694;2023-04-28T13:21:42;100712.25;;;18.86;33.59